createdAt,value
2023-01-21T00:01:04.080Z,97.70
2023-01-21T00:03:30.472Z,98.18
2023-01-21T00:05:58.405Z,98.33
2023-01-21T00:08:24.723Z,97.88
2023-01-21T00:10:51.133Z,97.87
2023-01-21T00:13:17.460Z,98.33
2023-01-21T00:15:43.778Z,97.84
2023-01-21T00:18:10.079Z,98.96
2023-01-21T00:20:36.453Z,99.99
2023-01-21T00:23:02.775Z,100.00
2023-01-21T00:25:29.114Z,100.00
2023-01-21T00:27:55.511Z,100.00
2023-01-21T00:30:21.842Z,100.00
2023-01-21T00:32:48.161Z,100.00
2023-01-21T00:35:14.512Z,100.00
2023-01-21T00:37:40.833Z,100.00
2023-01-21T00:40:07.142Z,100.00
2023-01-21T00:42:37.525Z,100.00
2023-01-21T00:45:03.834Z,100.00
2023-01-21T00:47:30.145Z,100.00
2023-01-21T00:49:56.659Z,100.00
2023-01-21T00:52:22.967Z,100.00
2023-01-21T00:54:49.281Z,100.00
2023-01-21T00:57:16.310Z,100.00
2023-01-21T00:59:42.807Z,100.00
2023-01-21T01:02:09.132Z,100.00
2023-01-21T01:04:35.451Z,100.00
2023-01-21T01:07:01.755Z,99.37
2023-01-21T01:09:28.054Z,99.08
2023-01-21T01:11:54.423Z,99.34
2023-01-21T01:14:20.741Z,98.98
2023-01-21T01:16:47.065Z,100.00
2023-01-21T01:19:13.423Z,100.00
2023-01-21T01:21:39.784Z,100.00
2023-01-21T01:24:06.319Z,100.00
2023-01-21T01:26:32.616Z,100.00
2023-01-21T01:28:58.953Z,100.00
2023-01-21T01:31:25.314Z,100.00
2023-01-21T01:33:51.689Z,100.00
2023-01-21T01:36:17.997Z,100.00
2023-01-21T01:38:44.368Z,100.00
2023-01-21T01:41:10.855Z,100.00
2023-01-21T01:43:37.188Z,100.00
2023-01-21T01:46:03.553Z,100.00
2023-01-21T01:48:29.961Z,100.00
2023-01-21T01:50:56.301Z,100.00
2023-01-21T01:53:22.652Z,100.00
2023-01-21T01:55:48.990Z,100.00
2023-01-21T01:58:15.521Z,100.00
2023-01-21T02:00:41.836Z,100.00
2023-01-21T02:03:27.016Z,100.00
2023-01-21T02:05:53.364Z,100.00
2023-01-21T02:08:19.693Z,100.00
2023-01-21T02:10:46.053Z,100.00
2023-01-21T02:13:12.374Z,100.00
2023-01-21T02:15:38.731Z,100.00
2023-01-21T02:18:05.053Z,100.00
2023-01-21T02:20:31.384Z,100.00
2023-01-21T02:22:57.715Z,100.00
2023-01-21T02:25:24.048Z,100.00
2023-01-21T02:27:50.355Z,100.00
2023-01-21T02:30:16.991Z,100.00
2023-01-21T02:32:43.523Z,100.00
2023-01-21T02:35:09.847Z,100.00
2023-01-21T02:37:36.237Z,100.00
2023-01-21T02:40:02.582Z,100.00
2023-01-21T02:42:28.915Z,100.00
2023-01-21T02:44:55.313Z,100.00
2023-01-21T02:47:21.649Z,100.00
2023-01-21T02:49:48.065Z,100.00
2023-01-21T02:52:14.380Z,100.00
2023-01-21T02:54:40.736Z,100.00
2023-01-21T02:57:07.093Z,100.00
2023-01-21T02:59:33.452Z,100.00
2023-01-21T03:01:59.810Z,100.00
2023-01-21T03:04:26.155Z,100.00
2023-01-21T03:06:52.490Z,100.00
2023-01-21T03:09:18.950Z,100.00
2023-01-21T03:11:45.324Z,100.00
2023-01-21T03:14:30.583Z,100.00
2023-01-21T03:16:56.974Z,100.00
2023-01-21T03:19:23.329Z,100.00
2023-01-21T03:21:49.627Z,100.00
2023-01-21T03:24:15.931Z,100.00
2023-01-21T03:26:42.255Z,100.00
2023-01-21T03:29:08.663Z,100.00
2023-01-21T03:31:35.033Z,100.00
2023-01-21T03:34:01.532Z,100.00
2023-01-21T03:36:27.878Z,100.00
2023-01-21T03:38:54.186Z,100.00
2023-01-21T03:41:20.506Z,100.00
2023-01-21T03:43:46.826Z,100.00
2023-01-21T03:46:13.197Z,100.00
2023-01-21T03:48:39.535Z,100.00
2023-01-21T03:51:05.905Z,100.00
2023-01-21T03:53:32.370Z,100.00
2023-01-21T03:56:00.051Z,100.00
2023-01-21T03:58:26.393Z,100.00
2023-01-21T04:00:52.727Z,100.00
2023-01-21T04:03:19.156Z,100.00
2023-01-21T04:05:45.505Z,100.00
2023-01-21T04:08:11.933Z,100.00
2023-01-21T04:10:38.274Z,100.00
2023-01-21T04:13:04.614Z,100.00
2023-01-21T04:15:30.927Z,100.00
2023-01-21T04:17:57.255Z,100.00
2023-01-21T04:20:23.552Z,100.00
2023-01-21T04:22:49.923Z,100.00
2023-01-21T04:25:16.251Z,100.00
2023-01-21T04:27:42.575Z,100.00
2023-01-21T04:30:09.044Z,100.00
2023-01-21T04:32:37.294Z,100.00
2023-01-21T04:35:03.651Z,100.00
2023-01-21T04:37:30.065Z,100.00
2023-01-21T04:39:56.386Z,100.00
2023-01-21T04:42:22.714Z,100.00
2023-01-21T04:44:49.085Z,100.00
2023-01-21T04:47:15.398Z,100.00
2023-01-21T04:49:41.744Z,100.00
2023-01-21T04:52:08.071Z,100.00
2023-01-21T04:54:34.388Z,100.00
2023-01-21T04:57:00.776Z,100.00
2023-01-21T04:59:27.089Z,100.00
2023-01-21T05:01:53.425Z,100.00
2023-01-21T05:04:19.735Z,100.00
2023-01-21T05:06:46.070Z,100.00
2023-01-21T05:09:12.413Z,100.00
2023-01-21T05:11:38.816Z,100.00
2023-01-21T05:14:05.161Z,100.00
2023-01-21T05:16:31.496Z,100.00
2023-01-21T05:18:57.860Z,100.00
2023-01-21T05:21:24.222Z,100.00
2023-01-21T05:23:50.546Z,100.00
2023-01-21T05:26:16.856Z,100.00
2023-01-21T05:28:43.190Z,100.00
2023-01-21T05:31:09.647Z,100.00
2023-01-21T05:33:36.005Z,100.00
2023-01-21T05:36:02.372Z,100.00
2023-01-21T05:38:28.703Z,100.00
2023-01-21T05:40:55.013Z,100.00
2023-01-21T05:43:21.380Z,100.00
2023-01-21T05:45:47.717Z,100.00
2023-01-21T05:48:14.034Z,100.00
2023-01-21T05:50:40.349Z,100.00
2023-01-21T05:53:06.693Z,100.00
2023-01-21T05:55:32.995Z,100.00
2023-01-21T05:57:59.295Z,100.00
2023-01-21T06:00:25.630Z,100.00
2023-01-21T06:02:51.948Z,100.00
2023-01-21T06:05:18.351Z,100.00
2023-01-21T06:07:44.706Z,100.00
2023-01-21T06:10:11.019Z,100.00
2023-01-21T06:12:37.387Z,100.00
2023-01-21T06:15:03.708Z,100.00
2023-01-21T06:17:30.022Z,100.00
2023-01-21T06:19:56.370Z,100.00
2023-01-21T06:22:22.759Z,100.00
2023-01-21T06:24:49.066Z,100.00
2023-01-21T06:27:15.428Z,100.00
2023-01-21T06:29:41.779Z,100.00
2023-01-21T06:32:08.194Z,100.00
2023-01-21T06:34:34.540Z,100.00
2023-01-21T06:37:00.863Z,100.00
2023-01-21T06:39:27.178Z,100.00
2023-01-21T06:41:55.250Z,100.00
2023-01-21T06:44:21.846Z,100.00
2023-01-21T06:47:00.187Z,100.00
2023-01-21T06:49:26.892Z,100.00
2023-01-21T06:51:53.255Z,100.00
2023-01-21T06:54:19.670Z,100.00
2023-01-21T06:56:46.062Z,100.00
2023-01-21T06:59:12.434Z,100.00
2023-01-21T07:01:38.801Z,100.00
2023-01-21T07:04:05.158Z,100.00
2023-01-21T07:06:31.471Z,100.00
2023-01-21T07:08:57.778Z,100.00
2023-01-21T07:11:24.079Z,100.00
2023-01-21T07:13:50.376Z,100.00
2023-01-21T07:16:16.759Z,100.00
2023-01-21T07:18:43.107Z,100.00
2023-01-21T07:21:09.433Z,100.00
2023-01-21T07:23:36.040Z,100.00
2023-01-21T07:26:02.417Z,100.00
2023-01-21T07:28:28.727Z,100.00
2023-01-21T07:30:55.145Z,100.00
2023-01-21T07:33:21.483Z,100.00
2023-01-21T07:35:47.789Z,100.00
2023-01-21T07:38:14.151Z,100.00
2023-01-21T07:40:40.477Z,100.00
2023-01-21T07:43:06.847Z,100.00
2023-01-21T07:45:36.249Z,100.00
2023-01-21T07:48:02.657Z,100.00
2023-01-21T07:50:28.989Z,100.00
2023-01-21T07:52:55.419Z,100.00
2023-01-21T07:55:21.747Z,100.00
2023-01-21T07:57:48.061Z,100.00
2023-01-21T08:00:14.395Z,100.00
2023-01-21T08:02:40.768Z,100.00
2023-01-21T08:05:07.145Z,100.00
2023-01-21T08:07:33.466Z,100.00
2023-01-21T08:09:59.843Z,100.00
2023-01-21T08:12:27.324Z,100.00
2023-01-21T08:14:53.739Z,100.00
2023-01-21T08:17:20.291Z,100.00
2023-01-21T08:19:46.663Z,100.00
2023-01-21T08:22:12.993Z,100.00
2023-01-21T08:24:39.373Z,100.00
2023-01-21T08:27:05.682Z,100.00
2023-01-21T08:29:32.111Z,100.00
2023-01-21T08:31:58.587Z,100.00
2023-01-21T08:34:25.552Z,100.00
2023-01-21T08:36:51.905Z,100.00
2023-01-21T08:39:18.369Z,100.00
2023-01-21T08:41:44.728Z,100.00
2023-01-21T08:44:11.074Z,100.00
2023-01-21T08:46:37.482Z,100.00
2023-01-21T08:49:05.162Z,100.00
2023-01-21T08:51:31.453Z,100.00
2023-01-21T08:53:57.803Z,100.00
2023-01-21T08:56:24.133Z,100.00
2023-01-21T08:58:50.442Z,100.00
2023-01-21T09:01:16.892Z,100.00
2023-01-21T09:03:43.267Z,100.00
2023-01-21T09:06:09.654Z,100.00
2023-01-21T09:08:36.607Z,100.00
2023-01-21T09:11:03.197Z,100.00
2023-01-21T09:13:29.627Z,100.00
2023-01-21T09:15:55.945Z,100.00
2023-01-21T09:18:22.288Z,100.00
2023-01-21T09:20:48.619Z,100.00
2023-01-21T09:23:24.582Z,100.00
2023-01-21T09:25:51.077Z,100.00
2023-01-21T09:28:17.420Z,100.00
2023-01-21T09:30:43.796Z,100.00
2023-01-21T09:33:10.117Z,100.00
2023-01-21T09:35:36.465Z,99.85
2023-01-21T09:38:02.794Z,99.67
2023-01-21T09:40:29.124Z,100.00
2023-01-21T09:42:55.438Z,99.42
2023-01-21T09:45:22.118Z,99.38
2023-01-21T09:47:48.464Z,98.60
2023-01-21T09:50:14.850Z,98.20
2023-01-21T09:52:41.258Z,98.36
2023-01-21T09:55:07.593Z,97.77
2023-01-21T09:57:33.915Z,98.27
2023-01-21T10:00:00.219Z,98.07
2023-01-21T10:02:26.552Z,97.14
2023-01-21T10:04:52.936Z,97.62
2023-01-21T10:07:19.295Z,97.42
2023-01-21T10:09:45.625Z,96.86
2023-01-21T10:12:12.420Z,96.42
2023-01-21T10:14:38.725Z,96.44
2023-01-21T10:17:05.045Z,95.66
2023-01-21T10:19:33.382Z,95.62
2023-01-21T10:22:00.438Z,95.72
2023-01-21T10:24:26.731Z,96.33
2023-01-21T10:26:53.087Z,96.76
2023-01-21T10:29:19.433Z,96.67
2023-01-21T10:31:45.804Z,97.08
2023-01-21T10:34:12.295Z,98.10
2023-01-21T10:36:38.632Z,96.79
2023-01-21T10:39:04.962Z,96.38
2023-01-21T10:41:31.360Z,95.90
2023-01-21T10:43:57.660Z,96.20
2023-01-21T10:46:24.100Z,96.31
2023-01-21T10:48:50.519Z,95.60
2023-01-21T10:51:16.881Z,95.76
2023-01-21T10:53:43.359Z,95.41
2023-01-21T10:56:09.672Z,95.96
2023-01-21T10:58:35.973Z,96.10
2023-01-21T11:01:02.376Z,96.24
2023-01-21T11:03:28.900Z,95.19
2023-01-21T11:05:56.277Z,95.76
2023-01-21T11:08:22.670Z,95.02
2023-01-21T11:10:48.985Z,95.08
2023-01-21T11:13:19.111Z,94.20
2023-01-21T11:15:45.478Z,94.22
2023-01-21T11:18:11.795Z,94.04
2023-01-21T11:20:38.136Z,94.72
2023-01-21T11:23:04.438Z,94.98
2023-01-21T11:25:30.791Z,95.10
2023-01-21T11:27:57.146Z,95.57
2023-01-21T11:30:40.635Z,95.14
2023-01-21T11:33:09.761Z,95.30
2023-01-21T11:35:36.064Z,95.20
2023-01-21T11:38:02.368Z,94.72
2023-01-21T11:40:28.933Z,94.84
2023-01-21T11:42:55.329Z,95.05
2023-01-21T11:45:21.632Z,95.88
2023-01-21T11:47:47.956Z,95.75
2023-01-21T11:50:14.328Z,97.44
2023-01-21T11:52:40.661Z,97.87
2023-01-21T11:55:06.977Z,98.80
2023-01-21T11:57:33.322Z,98.33
2023-01-21T11:59:59.673Z,99.11
2023-01-21T12:02:26.080Z,98.33
2023-01-21T12:04:52.446Z,99.05
2023-01-21T12:07:18.750Z,98.63
2023-01-21T12:09:45.060Z,98.93
2023-01-21T12:12:11.380Z,97.77
2023-01-21T12:14:37.691Z,98.60
2023-01-21T12:17:04.002Z,98.22
2023-01-21T12:19:30.415Z,98.76
2023-01-21T12:21:56.794Z,98.14
2023-01-21T12:24:23.124Z,97.38
2023-01-21T12:26:49.493Z,96.64
2023-01-21T12:29:16.675Z,96.96
2023-01-21T12:31:45.007Z,96.79
2023-01-21T12:34:11.392Z,97.10
2023-01-21T12:36:37.707Z,96.63
2023-01-21T12:39:04.037Z,97.18
2023-01-21T12:41:30.984Z,96.84
2023-01-21T12:43:57.293Z,96.53
2023-01-21T12:46:23.672Z,96.50
2023-01-21T12:48:50.035Z,97.31
2023-01-21T12:51:16.490Z,96.87
2023-01-21T12:53:42.834Z,97.27
2023-01-21T12:56:09.442Z,98.49
2023-01-21T12:58:35.756Z,98.31
2023-01-21T13:01:02.220Z,98.99
2023-01-21T13:03:28.564Z,99.11
2023-01-21T13:05:54.895Z,99.69
2023-01-21T13:08:21.191Z,100.00
2023-01-21T13:10:47.539Z,100.00
2023-01-21T13:13:13.867Z,100.00
2023-01-21T13:15:42.100Z,100.00
2023-01-21T13:18:08.441Z,100.00
2023-01-21T13:20:34.785Z,100.00
2023-01-21T13:23:01.118Z,100.00
2023-01-21T13:25:27.511Z,100.00
2023-01-21T13:27:53.881Z,100.00
2023-01-21T13:30:20.417Z,100.00
2023-01-21T13:32:46.794Z,100.00
2023-01-21T13:35:13.110Z,100.00
2023-01-21T13:37:39.423Z,100.00
2023-01-21T13:40:06.425Z,100.00
2023-01-21T13:42:32.820Z,100.00
2023-01-21T13:44:59.121Z,100.00
2023-01-21T13:47:27.006Z,100.00
2023-01-21T13:49:56.711Z,100.00
2023-01-21T13:52:23.073Z,100.00
2023-01-21T13:54:49.459Z,100.00
2023-01-21T13:57:15.858Z,100.00
2023-01-21T13:59:42.192Z,100.00
2023-01-21T14:02:08.548Z,100.00
2023-01-21T14:04:34.940Z,100.00
2023-01-21T14:07:01.741Z,100.00
2023-01-21T14:09:28.268Z,100.00
2023-01-21T14:11:54.610Z,100.00
2023-01-21T14:14:20.977Z,100.00
2023-01-21T14:16:47.533Z,100.00
2023-01-21T14:19:13.892Z,100.00
2023-01-21T14:21:40.217Z,100.00
2023-01-21T14:24:06.577Z,100.00
2023-01-21T14:26:33.253Z,100.00
2023-01-21T14:28:59.576Z,100.00
2023-01-21T14:31:25.970Z,100.00
2023-01-21T14:33:52.312Z,100.00
2023-01-21T14:36:18.620Z,100.00
2023-01-21T14:38:44.942Z,100.00
2023-01-21T14:41:11.250Z,100.00
2023-01-21T14:43:38.047Z,100.00
2023-01-21T14:46:04.404Z,100.00
2023-01-21T14:48:30.843Z,100.00
2023-01-21T14:50:57.215Z,100.00
2023-01-21T14:53:23.567Z,100.00
2023-01-21T14:55:53.003Z,100.00
2023-01-21T14:58:19.309Z,100.00
2023-01-21T15:00:46.068Z,100.00
2023-01-21T15:03:12.613Z,100.00
2023-01-21T15:05:39.023Z,100.00
2023-01-21T15:08:05.434Z,100.00
2023-01-21T15:10:31.794Z,100.00
2023-01-21T15:12:58.198Z,100.00
2023-01-21T15:15:24.506Z,100.00
2023-01-21T15:17:50.912Z,100.00
2023-01-21T15:20:17.226Z,100.00
2023-01-21T15:22:46.839Z,100.00
2023-01-21T15:25:13.207Z,100.00
2023-01-21T15:27:39.513Z,100.00
2023-01-21T15:30:05.869Z,100.00
2023-01-21T15:32:32.304Z,100.00
2023-01-21T15:34:58.604Z,100.00
2023-01-21T15:37:24.931Z,100.00
2023-01-21T15:39:54.413Z,100.00
2023-01-21T15:42:21.378Z,100.00
2023-01-21T15:44:48.177Z,100.00
2023-01-21T15:47:14.539Z,100.00
2023-01-21T15:49:40.910Z,100.00
2023-01-21T15:52:07.305Z,100.00
2023-01-21T15:54:33.684Z,100.00
2023-01-21T15:56:59.997Z,100.00
2023-01-21T15:59:26.405Z,100.00
2023-01-21T16:01:52.720Z,100.00
2023-01-21T16:04:19.788Z,100.00
2023-01-21T16:06:46.365Z,100.00
2023-01-21T16:09:12.722Z,100.00
2023-01-21T16:11:40.563Z,100.00
2023-01-21T16:14:06.900Z,100.00
2023-01-21T16:16:33.601Z,100.00
2023-01-21T16:18:59.921Z,100.00
2023-01-21T16:21:26.295Z,100.00
2023-01-21T16:23:52.591Z,100.00
2023-01-21T16:26:18.917Z,100.00
2023-01-21T16:28:46.540Z,100.00
2023-01-21T16:31:12.969Z,100.00
2023-01-21T16:33:39.376Z,100.00
2023-01-21T16:36:07.337Z,100.00
2023-01-21T16:38:33.778Z,100.00
2023-01-21T16:41:00.106Z,100.00
2023-01-21T16:43:26.452Z,100.00
2023-01-21T16:45:53.180Z,100.00
2023-01-21T16:48:19.569Z,100.00
2023-01-21T16:50:45.954Z,100.00
2023-01-21T16:53:12.485Z,100.00
2023-01-21T16:55:38.908Z,100.00
2023-01-21T16:58:05.527Z,100.00
2023-01-21T17:00:31.871Z,100.00
2023-01-21T17:02:58.265Z,100.00
2023-01-21T17:05:24.655Z,100.00
2023-01-21T17:07:51.125Z,100.00
2023-01-21T17:10:17.558Z,100.00
2023-01-21T17:12:43.941Z,100.00
2023-01-21T17:15:10.273Z,100.00
2023-01-21T17:17:36.583Z,100.00
2023-01-21T17:20:02.923Z,100.00
2023-01-21T17:22:29.223Z,100.00
2023-01-21T17:24:55.581Z,100.00
2023-01-21T17:27:23.412Z,100.00
2023-01-21T17:29:49.740Z,100.00
2023-01-21T17:32:16.064Z,100.00
2023-01-21T17:34:42.407Z,100.00
2023-01-21T17:37:08.744Z,100.00
2023-01-21T17:39:35.057Z,100.00
2023-01-21T17:42:01.363Z,100.00
2023-01-21T17:44:29.132Z,100.00
2023-01-21T17:46:55.442Z,100.00
2023-01-21T17:49:21.770Z,100.00
2023-01-21T17:51:49.973Z,100.00
2023-01-21T17:54:16.502Z,100.00
2023-01-21T17:56:43.002Z,100.00
2023-01-21T17:59:09.337Z,100.00
2023-01-21T18:01:35.728Z,100.00
2023-01-21T18:04:02.094Z,100.00
2023-01-21T18:06:28.416Z,100.00
2023-01-21T18:08:54.809Z,100.00
2023-01-21T18:11:21.193Z,100.00
2023-01-21T18:13:47.582Z,100.00
2023-01-21T18:16:14.003Z,100.00
2023-01-21T18:18:40.379Z,100.00
2023-01-21T18:21:06.767Z,100.00
2023-01-21T18:23:33.094Z,100.00
2023-01-21T18:25:59.481Z,100.00
2023-01-21T18:28:26.127Z,100.00
2023-01-21T18:30:52.523Z,100.00
2023-01-21T18:33:18.884Z,100.00
2023-01-21T18:35:45.214Z,100.00
2023-01-21T18:40:43.041Z,100.00
2023-01-21T18:43:09.356Z,100.00
2023-01-21T18:45:35.764Z,100.00
2023-01-21T18:48:02.085Z,100.00
2023-01-21T18:50:28.427Z,100.00
2023-01-21T18:52:54.727Z,100.00
2023-01-21T18:55:21.101Z,100.00
2023-01-21T18:57:47.588Z,100.00
2023-01-21T19:00:13.981Z,100.00
2023-01-21T19:02:40.379Z,100.00
2023-01-21T19:05:06.733Z,100.00
2023-01-21T19:07:33.995Z,100.00
2023-01-21T19:10:00.307Z,100.00
2023-01-21T19:12:26.823Z,100.00
2023-01-21T19:14:53.158Z,100.00
2023-01-21T19:17:19.526Z,100.00
2023-01-21T19:19:45.845Z,100.00
2023-01-21T19:22:12.274Z,100.00
2023-01-21T19:24:38.590Z,100.00
2023-01-21T19:27:06.343Z,100.00
2023-01-21T19:29:32.675Z,100.00
2023-01-21T19:31:59.197Z,100.00
2023-01-21T19:34:26.817Z,100.00
2023-01-21T19:36:53.246Z,100.00
2023-01-21T19:39:19.570Z,100.00
2023-01-21T19:41:45.896Z,100.00
2023-01-21T19:44:12.220Z,100.00
2023-01-21T19:46:38.654Z,100.00
2023-01-21T19:49:05.006Z,100.00
2023-01-21T19:51:32.188Z,100.00
2023-01-21T19:53:58.760Z,100.00
2023-01-21T19:56:25.075Z,100.00
2023-01-21T19:58:51.451Z,100.00
2023-01-21T20:01:17.885Z,100.00
2023-01-21T20:03:58.713Z,100.00
2023-01-21T20:06:25.867Z,100.00
2023-01-21T20:08:52.200Z,100.00
2023-01-21T20:11:18.580Z,100.00
2023-01-21T20:13:44.939Z,100.00
2023-01-21T20:16:11.307Z,100.00
2023-01-21T20:18:37.692Z,100.00
2023-01-21T20:21:04.190Z,100.00
2023-01-21T20:23:32.717Z,100.00
2023-01-21T20:25:59.207Z,100.00
2023-01-21T20:28:25.507Z,100.00
2023-01-21T20:30:51.845Z,100.00
2023-01-21T20:33:18.198Z,100.00
2023-01-21T20:35:44.557Z,100.00
2023-01-21T20:38:11.481Z,100.00
2023-01-21T20:40:37.836Z,100.00
2023-01-21T20:43:04.165Z,100.00
2023-01-21T20:45:30.533Z,100.00
2023-01-21T20:47:56.922Z,100.00
2023-01-21T20:50:23.300Z,100.00
2023-01-21T20:52:49.698Z,100.00
2023-01-21T20:55:17.860Z,100.00
2023-01-21T20:57:46.294Z,100.00
2023-01-21T21:00:12.645Z,100.00
2023-01-21T21:02:38.968Z,100.00
2023-01-21T21:05:05.304Z,100.00
2023-01-21T21:07:31.608Z,100.00
2023-01-21T21:10:00.130Z,100.00
2023-01-21T21:12:26.473Z,100.00
2023-01-21T21:14:52.850Z,100.00
2023-01-21T21:17:19.204Z,100.00
2023-01-21T21:19:45.548Z,100.00
2023-01-21T21:22:12.007Z,100.00
2023-01-21T21:24:38.338Z,100.00
2023-01-21T21:27:04.864Z,100.00
2023-01-21T21:29:31.213Z,100.00
2023-01-21T21:31:59.134Z,100.00
2023-01-21T21:34:27.677Z,100.00
2023-01-21T21:36:54.029Z,100.00
2023-01-21T21:39:22.063Z,100.00
2023-01-21T21:42:07.497Z,100.00
2023-01-21T21:44:33.823Z,100.00
2023-01-21T21:47:19.059Z,100.00
2023-01-21T21:49:45.373Z,100.00
2023-01-21T21:52:17.391Z,100.00
2023-01-21T21:54:43.736Z,100.00
2023-01-21T21:57:10.102Z,100.00
2023-01-21T21:59:36.399Z,100.00
2023-01-21T22:02:06.548Z,100.00
2023-01-21T22:04:33.030Z,100.00
2023-01-21T22:06:59.401Z,100.00
2023-01-21T22:09:25.734Z,100.00
2023-01-21T22:11:52.143Z,100.00
2023-01-21T22:14:18.493Z,100.00
2023-01-21T22:16:45.034Z,100.00
2023-01-21T22:19:11.376Z,100.00
2023-01-21T22:21:37.715Z,100.00
2023-01-21T22:24:04.061Z,100.00
2023-01-21T22:26:30.550Z,100.00
2023-01-21T22:28:56.991Z,100.00
2023-01-21T22:31:23.562Z,100.00
2023-01-21T22:33:49.953Z,100.00
2023-01-21T22:36:16.275Z,100.00
2023-01-21T22:38:42.605Z,100.00
2023-01-21T22:41:08.953Z,100.00
2023-01-21T22:43:35.281Z,100.00
2023-01-21T22:46:01.629Z,100.00
2023-01-21T22:48:28.104Z,100.00
2023-01-21T22:50:54.501Z,100.00
2023-01-21T22:53:20.957Z,100.00
2023-01-21T22:55:47.281Z,100.00
2023-01-21T22:58:13.589Z,100.00
2023-01-21T23:00:39.930Z,100.00
2023-01-21T23:03:06.283Z,100.00
2023-01-21T23:05:32.689Z,100.00
2023-01-21T23:10:26.402Z,100.00
2023-01-21T23:12:52.769Z,100.00
2023-01-21T23:15:19.081Z,100.00
2023-01-21T23:17:45.389Z,100.00
2023-01-21T23:20:11.714Z,100.00
2023-01-21T23:22:38.024Z,100.00
2023-01-21T23:25:04.344Z,100.00
2023-01-21T23:27:30.671Z,100.00
2023-01-21T23:29:56.964Z,100.00
2023-01-21T23:32:23.279Z,100.00
2023-01-21T23:34:49.641Z,100.00
2023-01-21T23:37:15.951Z,100.00
2023-01-21T23:39:43.141Z,100.00
2023-01-21T23:42:09.498Z,100.00
2023-01-21T23:44:35.830Z,100.00
2023-01-21T23:47:02.150Z,100.00
2023-01-21T23:49:28.524Z,100.00
2023-01-21T23:51:54.829Z,100.00
2023-01-21T23:54:21.184Z,100.00
2023-01-21T23:56:47.500Z,100.00
2023-01-21T23:59:13.856Z,100.00
